createdAt,value
2022-08-03T00:00:26.378Z,9.23
2022-08-03T00:02:53.850Z,10.88
2022-08-03T00:05:21.287Z,5.93
2022-08-03T00:07:49.411Z,5.55
2022-08-03T00:10:16.926Z,4.97
2022-08-03T00:12:44.327Z,4.93
2022-08-03T00:15:16.467Z,8.13
2022-08-03T00:17:52.588Z,5.38
2022-08-03T00:20:21.540Z,6.78
2022-08-03T00:22:48.815Z,5.30
2022-08-03T00:25:16.342Z,5.60
2022-08-03T00:27:44.065Z,6.07
2022-08-03T00:30:11.543Z,8.52
2022-08-03T00:32:38.828Z,7.32
2022-08-03T00:35:18.058Z,7.63
2022-08-03T00:37:59.468Z,9.45
2022-08-03T00:40:26.915Z,11.65
2022-08-03T00:42:58.379Z,11.25
2022-08-03T00:45:26.739Z,12.82
2022-08-03T00:47:54.213Z,11.88
2022-08-03T00:50:23.009Z,8.25
2022-08-03T00:52:51.316Z,8.18
2022-08-03T00:55:18.820Z,8.70
2022-08-03T00:57:46.290Z,6.80
2022-08-03T01:00:14.302Z,6.90
2022-08-03T01:02:41.921Z,9.35
2022-08-03T01:05:09.506Z,7.70
2022-08-03T01:07:55.460Z,9.07
2022-08-03T01:10:22.822Z,13.05
2022-08-03T01:12:53.769Z,8.05
2022-08-03T01:15:39.361Z,7.15
2022-08-03T01:18:06.477Z,7.60
2022-08-03T01:20:34.969Z,7.13
2022-08-03T01:23:28.871Z,9.02
2022-08-03T01:26:15.236Z,8.77
2022-08-03T01:28:42.311Z,12.57
2022-08-03T01:31:10.974Z,6.85
2022-08-03T01:33:41.342Z,6.85
2022-08-03T01:36:10.331Z,9.15
2022-08-03T01:38:42.471Z,10.68
2022-08-03T01:41:13.009Z,8.80
2022-08-03T01:43:55.147Z,9.80
2022-08-03T01:46:29.309Z,7.32
2022-08-03T01:48:56.883Z,11.57
2022-08-03T01:51:24.433Z,8.95
2022-08-03T01:54:12.790Z,8.43
2022-08-03T01:56:41.540Z,8.68
2022-08-03T01:59:09.320Z,9.18
2022-08-03T02:02:28.566Z,6.97
2022-08-03T02:04:26.785Z,6.15
2022-08-03T02:07:02.039Z,6.25
2022-08-03T02:09:31.232Z,11.07
2022-08-03T02:11:58.599Z,8.10
2022-08-03T02:14:26.806Z,12.77
2022-08-03T02:16:55.310Z,15.38
2022-08-03T02:19:25.976Z,13.05
2022-08-03T02:21:57.408Z,14.32
2022-08-03T02:24:28.810Z,8.82
2022-08-03T02:26:56.650Z,7.97
2022-08-03T02:29:39.867Z,14.75
2022-08-03T02:32:09.846Z,9.75
2022-08-03T02:34:37.276Z,10.70
2022-08-03T02:37:06.136Z,10.98
2022-08-03T02:39:35.112Z,13.35
2022-08-03T02:42:04.294Z,6.82
2022-08-03T02:44:36.265Z,9.88
2022-08-03T02:47:07.340Z,9.75
2022-08-03T02:49:51.478Z,8.02
2022-08-03T02:52:22.087Z,19.65
2022-08-03T02:54:50.096Z,13.32
2022-08-03T02:57:19.326Z,18.45
2022-08-03T02:59:46.692Z,8.35
2022-08-03T03:02:16.105Z,12.20
2022-08-03T03:05:50.633Z,10.68
2022-08-03T03:07:35.368Z,8.07
2022-08-03T03:10:19.853Z,16.33
2022-08-03T03:12:47.424Z,11.98
2022-08-03T03:15:14.875Z,14.70
2022-08-03T03:17:43.455Z,7.25
2022-08-03T03:20:11.256Z,13.82
2022-08-03T03:22:39.967Z,12.25
2022-08-03T03:25:10.859Z,13.07
2022-08-03T03:27:38.212Z,9.20
2022-08-03T03:30:06.082Z,11.68
2022-08-03T03:32:33.718Z,10.85
2022-08-03T03:35:01.124Z,11.30
2022-08-03T03:37:31.245Z,12.60
2022-08-03T03:39:58.443Z,11.43
2022-08-03T03:42:26.964Z,13.27
2022-08-03T03:44:54.218Z,11.13
2022-08-03T03:47:32.373Z,11.88
2022-08-03T03:50:00.247Z,7.13
2022-08-03T03:52:27.291Z,15.45
2022-08-03T03:54:58.924Z,13.02
2022-08-03T03:57:27.987Z,12.00
2022-08-03T03:59:55.084Z,13.85
2022-08-03T04:02:22.391Z,11.73
2022-08-03T04:05:08.141Z,13.48
2022-08-03T04:08:01.629Z,10.48
2022-08-03T04:10:48.331Z,10.82
2022-08-03T04:13:17.341Z,7.05
2022-08-03T04:15:44.460Z,13.73
2022-08-03T04:18:13.586Z,17.35
2022-08-03T04:20:41.528Z,13.93
2022-08-03T04:23:14.235Z,15.07
2022-08-03T04:25:44.167Z,8.98
2022-08-03T04:28:29.568Z,8.13
2022-08-03T04:30:59.842Z,7.50
2022-08-03T04:33:29.628Z,12.77
2022-08-03T04:36:02.681Z,12.70
2022-08-03T04:38:32.375Z,14.45
2022-08-03T04:41:00.090Z,17.42
2022-08-03T04:43:27.706Z,15.05
2022-08-03T04:45:55.070Z,11.63
2022-08-03T04:48:22.232Z,11.02
2022-08-03T04:50:51.864Z,10.95
2022-08-03T04:53:19.616Z,10.93
2022-08-03T04:55:46.937Z,16.33
2022-08-03T04:58:14.075Z,12.57
2022-08-03T05:00:41.154Z,11.15
2022-08-03T05:03:19.486Z,10.55
2022-08-03T05:05:52.229Z,15.43
2022-08-03T05:08:27.891Z,11.90
2022-08-03T05:10:59.056Z,11.77
2022-08-03T05:13:26.538Z,11.35
2022-08-03T05:15:53.637Z,14.38
2022-08-03T05:18:21.036Z,10.60
2022-08-03T05:20:48.159Z,12.23
2022-08-03T05:23:15.330Z,10.55
2022-08-03T05:25:49.599Z,12.10
2022-08-03T05:28:17.388Z,19.30
2022-08-03T05:30:44.742Z,10.25
2022-08-03T05:33:12.170Z,13.70
2022-08-03T05:36:02.021Z,19.00
2022-08-03T05:38:28.486Z,15.82
2022-08-03T05:41:20.326Z,15.48
2022-08-03T05:43:48.999Z,19.90
2022-08-03T05:46:16.171Z,12.40
2022-08-03T05:48:43.579Z,14.88
2022-08-03T05:51:14.130Z,15.70
2022-08-03T05:53:42.253Z,18.90
2022-08-03T05:56:13.731Z,15.68
2022-08-03T05:58:43.360Z,17.38
2022-08-03T06:01:10.500Z,11.70
2022-08-03T06:03:37.934Z,11.30
2022-08-03T06:06:05.133Z,8.90
2022-08-03T06:08:34.307Z,18.33
2022-08-03T06:11:01.576Z,19.38
2022-08-03T06:13:28.723Z,13.82
2022-08-03T06:15:56.076Z,21.02
2022-08-03T06:18:24.550Z,20.35
2022-08-03T06:20:52.605Z,20.65
2022-08-03T06:23:19.964Z,15.80
2022-08-03T06:25:47.597Z,11.88
2022-08-03T06:31:02.624Z,15.38
2022-08-03T06:34:30.028Z,17.80
2022-08-03T06:36:17.216Z,15.82
2022-08-03T06:38:45.003Z,13.70
2022-08-03T06:41:12.239Z,19.38
2022-08-03T06:44:03.014Z,12.45
2022-08-03T06:46:26.678Z,16.55
2022-08-03T06:48:54.418Z,15.48
2022-08-03T06:51:21.635Z,16.02
2022-08-03T06:54:08.859Z,22.20
2022-08-03T06:56:36.320Z,12.15
2022-08-03T06:59:03.439Z,22.35
2022-08-03T07:01:30.509Z,19.38
2022-08-03T07:03:57.940Z,13.40
2022-08-03T07:06:25.021Z,13.80
2022-08-03T07:08:55.461Z,12.35
2022-08-03T07:11:25.020Z,17.08
2022-08-03T07:13:52.388Z,17.60
2022-08-03T07:16:19.566Z,15.75
2022-08-03T07:18:47.085Z,12.00
2022-08-03T07:21:14.215Z,9.98
2022-08-03T07:23:41.413Z,11.73
2022-08-03T07:26:08.771Z,15.43
2022-08-03T07:28:35.929Z,13.65
2022-08-03T07:31:03.234Z,17.42
2022-08-03T07:33:30.520Z,16.45
2022-08-03T07:35:57.902Z,17.13
2022-08-03T07:38:24.947Z,12.85
2022-08-03T07:40:52.008Z,18.77
2022-08-03T07:43:19.336Z,10.00
2022-08-03T07:45:46.613Z,13.05
2022-08-03T07:48:14.259Z,13.90
2022-08-03T07:50:41.401Z,14.43
2022-08-03T07:53:08.975Z,14.20
2022-08-03T07:55:36.182Z,15.52
2022-08-03T07:58:09.974Z,14.55
2022-08-03T08:00:37.630Z,12.95
2022-08-03T08:03:05.324Z,11.25
2022-08-03T08:05:34.753Z,15.98
2022-08-03T08:08:02.336Z,13.85
2022-08-03T08:10:29.735Z,13.57
2022-08-03T08:12:57.237Z,22.05
2022-08-03T08:15:25.201Z,17.70
2022-08-03T08:17:54.186Z,19.58
2022-08-03T08:20:27.723Z,14.40
2022-08-03T08:23:01.415Z,18.17
2022-08-03T08:25:29.548Z,18.05
2022-08-03T08:28:31.322Z,22.40
2022-08-03T08:30:45.553Z,18.00
2022-08-03T08:33:22.774Z,11.98
2022-08-03T08:35:51.238Z,15.82
2022-08-03T08:38:18.334Z,11.23
2022-08-03T08:40:45.940Z,17.95
2022-08-03T08:43:13.096Z,13.50
2022-08-03T08:45:41.785Z,18.10
2022-08-03T08:48:10.338Z,15.32
2022-08-03T08:50:38.194Z,24.77
2022-08-03T08:53:07.331Z,20.73
2022-08-03T08:55:59.178Z,20.05
2022-08-03T08:58:25.194Z,17.85
2022-08-03T09:00:52.401Z,13.13
2022-08-03T09:03:22.554Z,13.20
2022-08-03T09:05:56.769Z,15.57
2022-08-03T09:08:24.054Z,20.35
2022-08-03T09:10:51.132Z,14.70
2022-08-03T09:13:18.199Z,16.58
2022-08-03T09:16:01.313Z,13.07
2022-08-03T09:18:33.500Z,16.25
2022-08-03T09:21:30.134Z,17.08
2022-08-03T09:24:02.932Z,16.00
2022-08-03T09:26:31.330Z,10.32
2022-08-03T09:29:04.886Z,12.05
2022-08-03T09:31:35.443Z,14.45
2022-08-03T09:34:13.097Z,15.38
2022-08-03T09:36:41.558Z,16.63
2022-08-03T09:39:11.266Z,18.95
2022-08-03T09:41:42.307Z,21.48
2022-08-03T09:44:23.995Z,17.08
2022-08-03T09:46:55.312Z,15.27
2022-08-03T09:49:22.982Z,17.20
2022-08-03T09:52:30.082Z,21.30
2022-08-03T09:54:37.367Z,16.83
2022-08-03T09:57:04.847Z,12.65
2022-08-03T09:59:33.316Z,18.83
2022-08-03T10:02:01.976Z,14.80
2022-08-03T10:04:30.163Z,17.55
2022-08-03T10:07:09.205Z,16.42
2022-08-03T10:09:36.752Z,19.02
2022-08-03T10:12:14.101Z,16.38
2022-08-03T10:14:43.816Z,20.95
2022-08-03T10:17:10.922Z,12.73
2022-08-03T10:19:38.863Z,19.02
2022-08-03T10:22:13.088Z,22.15
2022-08-03T10:24:40.849Z,18.45
2022-08-03T10:27:08.476Z,16.58
2022-08-03T10:29:38.873Z,12.95
2022-08-03T10:32:11.206Z,12.15
2022-08-03T10:34:44.379Z,20.38
2022-08-03T10:37:12.748Z,17.98
2022-08-03T10:39:53.253Z,17.00
2022-08-03T10:42:22.047Z,24.40
2022-08-03T10:44:53.928Z,16.83
2022-08-03T10:47:21.840Z,12.73
2022-08-03T10:49:50.082Z,17.85
2022-08-03T10:52:31.784Z,15.00
2022-08-03T10:55:19.854Z,19.38
2022-08-03T10:57:58.810Z,10.35
2022-08-03T11:00:27.341Z,13.90
2022-08-03T11:03:09.730Z,17.33
2022-08-03T11:05:38.518Z,13.43
2022-08-03T11:08:19.760Z,13.40
2022-08-03T11:10:47.105Z,14.80
2022-08-03T11:13:18.486Z,15.02
2022-08-03T11:15:46.911Z,10.30
2022-08-03T11:18:14.588Z,13.43
2022-08-03T11:20:52.648Z,12.77
2022-08-03T11:24:02.746Z,13.75
2022-08-03T11:26:10.003Z,13.98
2022-08-03T11:28:38.927Z,7.70
2022-08-03T11:31:48.808Z,12.57
2022-08-03T11:34:15.839Z,16.73
2022-08-03T11:37:01.775Z,13.30
2022-08-03T11:39:45.890Z,14.85
2022-08-03T11:42:26.263Z,11.30
2022-08-03T11:45:00.358Z,9.80
2022-08-03T11:47:28.871Z,11.57
2022-08-03T11:50:01.930Z,10.15
2022-08-03T11:52:35.199Z,13.50
2022-08-03T11:55:04.901Z,17.58
2022-08-03T11:59:16.737Z,10.95
2022-08-03T12:00:28.295Z,11.43
2022-08-03T12:03:09.261Z,9.95
2022-08-03T12:05:41.763Z,15.38
2022-08-03T12:08:19.870Z,12.43
2022-08-03T12:10:53.485Z,10.93
2022-08-03T12:13:56.846Z,11.75
2022-08-03T12:16:09.300Z,9.13
2022-08-03T12:18:36.960Z,9.65
2022-08-03T12:21:05.877Z,8.38
2022-08-03T12:23:37.570Z,10.57
2022-08-03T12:26:07.265Z,12.70
2022-08-03T12:28:36.819Z,10.75
2022-08-03T12:31:09.723Z,8.70
2022-08-03T12:33:59.022Z,12.63
2022-08-03T12:36:27.837Z,13.93
2022-08-03T12:38:57.048Z,12.43
2022-08-03T12:41:36.322Z,10.95
2022-08-03T12:44:04.807Z,10.50
2022-08-03T12:46:37.286Z,9.25
2022-08-03T12:51:32.914Z,9.30
2022-08-03T12:54:00.227Z,9.57
2022-08-03T12:56:27.960Z,12.00
2022-08-03T12:58:55.202Z,7.65
2022-08-03T13:01:24.447Z,10.50
2022-08-03T13:03:53.809Z,8.25
2022-08-03T13:06:22.948Z,9.68
2022-08-03T13:08:51.297Z,14.02
2022-08-03T13:11:22.286Z,7.82
2022-08-03T13:13:50.002Z,6.28
2022-08-03T13:16:19.306Z,7.28
2022-08-03T13:18:47.160Z,6.13
2022-08-03T13:21:16.260Z,7.70
2022-08-03T13:23:44.210Z,9.05
2022-08-03T13:26:11.831Z,7.57
2022-08-03T13:28:39.685Z,8.60
2022-08-03T13:31:07.748Z,7.40
2022-08-03T13:33:34.931Z,9.95
2022-08-03T13:36:04.069Z,10.38
2022-08-03T13:38:31.592Z,9.18
2022-08-03T13:41:04.906Z,4.80
2022-08-03T13:43:32.791Z,8.15
2022-08-03T13:45:59.929Z,6.25
2022-08-03T13:48:37.059Z,7.82
2022-08-03T13:51:21.909Z,9.98
2022-08-03T13:53:50.326Z,8.95
2022-08-03T13:56:17.651Z,6.35
2022-08-03T13:58:44.716Z,9.80
2022-08-03T14:01:11.884Z,4.85
2022-08-03T14:03:39.255Z,5.13
2022-08-03T14:06:07.851Z,8.35
2022-08-03T14:08:35.623Z,8.60
2022-08-03T14:11:03.015Z,8.43
2022-08-03T14:13:30.214Z,8.30
2022-08-03T14:15:57.246Z,6.65
2022-08-03T14:18:28.608Z,5.45
2022-08-03T14:21:05.571Z,6.55
2022-08-03T14:23:34.080Z,4.55
2022-08-03T14:26:01.206Z,8.13
2022-08-03T14:28:28.749Z,9.32
2022-08-03T14:30:56.294Z,7.97
2022-08-03T14:33:23.709Z,5.63
2022-08-03T14:35:55.356Z,5.25
2022-08-03T14:38:23.278Z,9.02
2022-08-03T14:40:50.928Z,12.63
2022-08-03T14:43:20.187Z,6.13
2022-08-03T14:45:48.532Z,5.95
2022-08-03T14:50:29.671Z,5.35
2022-08-03T14:51:03.090Z,5.22
2022-08-03T14:53:30.705Z,6.47
2022-08-03T14:55:57.869Z,7.15
2022-08-03T14:58:26.585Z,5.20
2022-08-03T15:00:54.793Z,4.70
2022-08-03T15:03:25.947Z,5.03
2022-08-03T15:05:54.050Z,4.63
2022-08-03T15:08:24.254Z,8.57
2022-08-03T15:10:52.143Z,5.50
2022-08-03T15:13:19.807Z,7.28
2022-08-03T15:15:47.717Z,4.45
2022-08-03T15:18:15.116Z,5.40
2022-08-03T15:20:45.497Z,11.02
2022-08-03T15:23:14.050Z,8.02
2022-08-03T15:26:28.010Z,6.30
2022-08-03T15:28:28.305Z,8.45
2022-08-03T15:30:55.699Z,8.82
2022-08-03T15:33:23.162Z,5.40
2022-08-03T15:35:50.647Z,6.88
2022-08-03T15:38:18.266Z,8.40
2022-08-03T15:40:46.244Z,4.97
2022-08-03T15:43:13.598Z,8.25
2022-08-03T15:45:41.986Z,9.52
2022-08-03T15:48:09.798Z,7.57
2022-08-03T15:50:37.276Z,6.15
2022-08-03T15:53:06.968Z,6.38
2022-08-03T15:55:34.127Z,6.85
2022-08-03T15:59:04.737Z,16.17
2022-08-03T16:00:48.566Z,4.45
2022-08-03T16:03:15.737Z,7.53
2022-08-03T16:05:42.876Z,6.43
2022-08-03T16:08:13.706Z,3.55
2022-08-03T16:10:41.396Z,4.30
2022-08-03T16:13:08.929Z,4.95
2022-08-03T16:15:38.612Z,8.93
2022-08-03T16:18:09.186Z,8.05
2022-08-03T16:20:36.485Z,8.38
2022-08-03T16:23:11.231Z,5.30
2022-08-03T16:25:42.052Z,12.35
2022-08-03T16:28:13.728Z,9.10
2022-08-03T16:30:42.733Z,3.72
2022-08-03T16:33:10.024Z,5.22
2022-08-03T16:35:37.149Z,6.15
2022-08-03T16:38:09.417Z,7.57
2022-08-03T16:40:37.719Z,7.50
2022-08-03T16:43:18.339Z,10.68
2022-08-03T16:45:47.657Z,9.95
2022-08-03T16:48:18.534Z,5.97
2022-08-03T16:50:45.901Z,5.30
2022-08-03T16:53:16.693Z,12.55
2022-08-03T16:55:53.774Z,7.07
2022-08-03T16:58:34.779Z,6.78
2022-08-03T17:01:21.472Z,7.20
2022-08-03T17:04:02.504Z,9.00
2022-08-03T17:06:34.213Z,7.25
2022-08-03T17:09:01.918Z,5.88
2022-08-03T17:11:32.108Z,7.38
2022-08-03T17:14:00.464Z,8.50
2022-08-03T17:16:28.378Z,5.10
2022-08-03T17:19:02.061Z,6.05
2022-08-03T17:21:32.755Z,6.30
2022-08-03T17:24:22.358Z,7.28
2022-08-03T17:26:53.838Z,8.38
2022-08-03T17:29:25.097Z,6.20
2022-08-03T17:31:52.987Z,7.38
2022-08-03T17:34:20.611Z,4.25
2022-08-03T17:37:05.754Z,8.18
2022-08-03T17:39:57.505Z,7.10
2022-08-03T17:42:31.187Z,5.72
2022-08-03T17:45:02.518Z,6.53
2022-08-03T17:47:41.241Z,6.47
2022-08-03T17:50:23.959Z,6.47
2022-08-03T17:55:55.497Z,5.63
2022-08-03T17:58:14.951Z,6.70
2022-08-03T18:01:59.522Z,6.60
2022-08-03T18:06:55.981Z,9.05
2022-08-03T18:10:05.801Z,5.72
2022-08-03T18:12:14.507Z,4.80
2022-08-03T18:14:57.177Z,6.13
2022-08-03T18:17:55.257Z,6.13
2022-08-03T18:20:34.585Z,5.50
2022-08-03T18:23:05.722Z,8.15
2022-08-03T18:25:45.716Z,8.82
2022-08-03T18:28:18.741Z,5.45
2022-08-03T18:30:54.500Z,6.57
2022-08-03T18:34:17.325Z,6.20
2022-08-03T18:39:13.325Z,5.43
2022-08-03T18:41:46.438Z,5.07
2022-08-03T18:44:38.023Z,8.45
2022-08-03T18:47:20.656Z,6.82
2022-08-03T18:49:51.449Z,5.82
2022-08-03T18:52:27.627Z,8.05
2022-08-03T18:55:02.661Z,6.47
2022-08-03T18:57:46.739Z,5.90
2022-08-03T19:00:17.556Z,5.63
2022-08-03T19:02:55.025Z,6.68
2022-08-03T19:05:24.635Z,5.05
2022-08-03T19:08:17.376Z,7.22
2022-08-03T19:10:57.472Z,5.80
2022-08-03T19:13:30.977Z,5.30
2022-08-03T19:16:04.658Z,6.47
2022-08-03T19:18:37.075Z,8.38
2022-08-03T19:21:12.681Z,7.70
2022-08-03T19:23:45.817Z,7.38
2022-08-03T19:26:30.017Z,6.07
2022-08-03T19:28:58.702Z,6.05
2022-08-03T19:31:30.782Z,6.68
2022-08-03T19:33:59.806Z,5.10
2022-08-03T19:36:28.834Z,5.53
2022-08-03T19:38:56.665Z,5.07
2022-08-03T19:41:25.815Z,6.65
2022-08-03T19:44:04.460Z,5.78
2022-08-03T19:46:34.664Z,5.03
2022-08-03T19:49:16.237Z,7.32
2022-08-03T19:52:01.659Z,7.60
2022-08-03T19:54:53.290Z,4.20
2022-08-03T19:57:24.338Z,6.90
2022-08-03T19:59:51.846Z,5.90
2022-08-03T20:02:26.966Z,6.10
2022-08-03T20:04:59.745Z,6.05
2022-08-03T20:07:30.647Z,7.45
2022-08-03T20:10:01.417Z,8.05
2022-08-03T20:12:31.289Z,7.88
2022-08-03T20:15:01.907Z,4.57
2022-08-03T20:17:55.397Z,9.32
2022-08-03T20:20:20.034Z,7.20
2022-08-03T20:22:52.779Z,7.50
2022-08-03T20:25:24.863Z,4.22
2022-08-03T20:28:13.881Z,7.88
2022-08-03T20:30:43.279Z,8.85
2022-08-03T20:33:18.238Z,8.35
2022-08-03T20:35:48.923Z,8.68
2022-08-03T20:38:17.618Z,7.47
2022-08-03T20:40:48.345Z,5.45
2022-08-03T20:43:16.211Z,5.13
2022-08-03T20:46:00.266Z,5.80
2022-08-03T20:48:30.949Z,6.60
2022-08-03T20:50:58.096Z,5.18
2022-08-03T20:56:12.664Z,11.23
2022-08-03T20:58:41.920Z,5.05
2022-08-03T21:01:09.691Z,9.35
2022-08-03T21:03:40.823Z,7.70
2022-08-03T21:06:27.672Z,9.38
2022-08-03T21:09:00.323Z,7.70
2022-08-03T21:11:41.391Z,10.23
2022-08-03T21:12:56.491Z,5.53
2022-08-03T21:13:05.314Z,5.07
2022-08-03T21:13:07.721Z,7.15
2022-08-03T21:14:29.370Z,8.30
2022-08-03T21:16:56.793Z,8.20
2022-08-03T21:19:26.186Z,12.10
2022-08-03T21:21:54.647Z,10.60
2022-08-03T21:24:24.595Z,10.20
2022-08-03T21:26:54.404Z,7.00
2022-08-03T21:29:21.821Z,12.27
2022-08-03T21:31:49.480Z,7.50
2022-08-03T21:34:16.696Z,8.55
2022-08-03T21:36:43.809Z,9.60
2022-08-03T21:39:11.357Z,6.97
2022-08-03T21:41:39.360Z,14.10
2022-08-03T21:44:07.325Z,10.27
2022-08-03T21:46:38.611Z,6.13
2022-08-03T21:50:05.456Z,5.32
2022-08-03T21:51:58.048Z,6.90
2022-08-03T21:54:29.767Z,8.40
2022-08-03T21:56:58.097Z,8.52
2022-08-03T21:59:26.615Z,5.82
2022-08-03T22:01:55.471Z,6.05
2022-08-03T22:04:53.434Z,6.37
2022-08-03T22:07:13.835Z,5.60
2022-08-03T22:09:50.051Z,5.20
2022-08-03T22:12:22.744Z,6.80
2022-08-03T22:15:00.164Z,5.18
2022-08-03T22:17:55.353Z,6.00
2022-08-03T22:20:16.876Z,7.40
2022-08-03T22:22:55.498Z,7.40
2022-08-03T22:25:24.945Z,5.75
2022-08-03T22:27:53.459Z,7.30
2022-08-03T22:30:21.799Z,7.15
2022-08-03T22:32:50.752Z,7.47
2022-08-03T22:35:18.749Z,9.95
2022-08-03T22:37:49.412Z,7.75
2022-08-03T22:40:17.349Z,8.60
2022-08-03T22:42:52.233Z,8.00
2022-08-03T22:46:07.469Z,11.30
2022-08-03T22:48:09.211Z,6.35
2022-08-03T22:50:36.748Z,7.28
2022-08-03T22:53:04.260Z,7.07
2022-08-03T22:55:31.758Z,10.18
2022-08-03T22:57:58.971Z,8.90
2022-08-03T23:00:26.137Z,6.63
2022-08-03T23:02:55.259Z,9.43
2022-08-03T23:06:01.942Z,8.88
2022-08-03T23:08:15.491Z,9.77
2022-08-03T23:10:47.396Z,6.85
2022-08-03T23:13:18.393Z,10.63
2022-08-03T23:15:50.542Z,8.25
2022-08-03T23:18:18.785Z,9.43
2022-08-03T23:20:46.201Z,7.80
2022-08-03T23:23:20.029Z,5.90
2022-08-03T23:25:48.687Z,6.53
2022-08-03T23:28:16.449Z,8.43
2022-08-03T23:30:44.812Z,9.43
2022-08-03T23:33:15.444Z,6.22
2022-08-03T23:36:27.585Z,8.02
2022-08-03T23:38:45.885Z,8.63
2022-08-03T23:41:14.393Z,7.47
2022-08-03T23:43:51.384Z,11.27
2022-08-03T23:46:22.553Z,9.15
2022-08-03T23:48:51.156Z,4.35
2022-08-03T23:51:38.704Z,8.85
2022-08-03T23:54:24.833Z,4.05
2022-08-03T23:56:57.887Z,5.05
2022-08-03T23:59:41.218Z,4.72
